createdAt,value
2022-10-13T00:01:12.042Z,60.90
2022-10-13T00:03:40.446Z,61.03
2022-10-13T00:06:08.710Z,58.10
2022-10-13T00:08:36.385Z,52.93
2022-10-13T00:11:09.613Z,57.70
2022-10-13T00:13:36.707Z,58.80
2022-10-13T00:16:04.414Z,54.30
2022-10-13T00:18:31.500Z,58.73
2022-10-13T00:20:58.636Z,60.53
2022-10-13T00:23:25.742Z,55.80
2022-10-13T00:25:52.931Z,69.93
2022-10-13T00:28:20.598Z,65.27
2022-10-13T00:30:47.851Z,67.03
2022-10-13T00:33:14.998Z,72.37
2022-10-13T00:35:46.097Z,76.40
2022-10-13T00:38:13.483Z,76.17
2022-10-13T00:40:49.766Z,68.90
2022-10-13T00:43:19.611Z,81.07
2022-10-13T00:45:49.790Z,77.03
2022-10-13T00:48:18.393Z,78.37
2022-10-13T00:50:45.915Z,80.70
2022-10-13T00:53:14.170Z,92.03
2022-10-13T00:55:43.006Z,97.27
2022-10-13T00:58:11.978Z,74.03
2022-10-13T01:00:39.234Z,77.10
2022-10-13T01:03:06.355Z,83.07
2022-10-13T01:05:33.845Z,85.23
2022-10-13T01:08:01.730Z,88.60
2022-10-13T01:10:58.126Z,153.67
2022-10-13T01:13:25.340Z,144.90
2022-10-13T01:15:57.566Z,183.47
2022-10-13T01:18:45.847Z,121.67
2022-10-13T01:21:17.939Z,114.43
2022-10-13T01:23:50.962Z,276.60
2022-10-13T01:26:36.573Z,197.57
2022-10-13T01:29:09.766Z,317.93
2022-10-13T01:31:39.993Z,148.53
2022-10-13T01:34:07.031Z,240.03
2022-10-13T01:36:39.194Z,133.83
2022-10-13T01:39:08.242Z,120.47
2022-10-13T01:41:35.347Z,172.83
2022-10-13T01:44:02.397Z,149.07
2022-10-13T01:46:39.155Z,171.50
2022-10-13T01:49:08.997Z,180.47
2022-10-13T01:51:36.356Z,138.50
2022-10-13T01:54:03.477Z,131.63
2022-10-13T01:56:30.598Z,143.03
2022-10-13T01:58:58.729Z,94.90
2022-10-13T02:01:44.254Z,84.33
2022-10-13T02:04:30.178Z,92.53
2022-10-13T02:07:16.110Z,85.00
2022-10-13T02:09:49.173Z,90.17
2022-10-13T02:12:21.568Z,92.30
2022-10-13T02:14:49.554Z,130.60
2022-10-13T02:17:16.923Z,98.50
2022-10-13T02:19:44.170Z,66.33
2022-10-13T02:22:13.586Z,64.73
2022-10-13T02:24:40.934Z,57.80
2022-10-13T02:27:08.229Z,55.90
2022-10-13T02:29:35.306Z,54.43
2022-10-13T02:32:02.455Z,53.67
2022-10-13T02:34:29.627Z,77.93
2022-10-13T02:36:56.694Z,56.00
2022-10-13T02:39:23.743Z,58.97
2022-10-13T02:41:50.829Z,65.20
2022-10-13T02:44:17.911Z,56.63
2022-10-13T02:46:45.032Z,59.50
2022-10-13T02:49:12.207Z,105.40
2022-10-13T02:51:40.554Z,154.80
2022-10-13T02:54:07.874Z,71.37
2022-10-13T02:56:34.971Z,82.00
2022-10-13T02:59:02.076Z,85.30
2022-10-13T03:01:29.255Z,82.20
2022-10-13T03:03:56.381Z,75.43
2022-10-13T03:06:23.756Z,82.73
2022-10-13T03:08:51.200Z,94.90
2022-10-13T03:11:18.269Z,99.37
2022-10-13T03:13:45.347Z,136.03
2022-10-13T03:16:12.422Z,98.67
2022-10-13T03:18:39.482Z,135.70
2022-10-13T03:21:07.090Z,202.83
2022-10-13T03:23:34.518Z,151.63
2022-10-13T03:26:02.056Z,135.57
2022-10-13T03:28:29.533Z,134.03
2022-10-13T03:31:03.659Z,124.27
2022-10-13T03:33:30.821Z,113.47
2022-10-13T03:36:05.414Z,220.97
2022-10-13T03:38:33.756Z,154.53
2022-10-13T03:41:30.023Z,115.50
2022-10-13T03:43:57.110Z,91.50
2022-10-13T03:46:25.380Z,104.20
2022-10-13T03:48:52.586Z,112.47
2022-10-13T03:51:20.617Z,119.20
2022-10-13T03:53:48.382Z,76.07
2022-10-13T03:56:17.490Z,97.83
2022-10-13T03:58:44.758Z,107.40
2022-10-13T04:01:13.227Z,93.00
2022-10-13T04:03:40.634Z,91.10
2022-10-13T04:06:07.792Z,120.03
2022-10-13T04:08:34.897Z,290.90
2022-10-13T04:11:02.735Z,241.60
2022-10-13T04:13:29.805Z,248.07
2022-10-13T04:15:56.989Z,240.00
2022-10-13T04:18:24.057Z,131.10
2022-10-13T04:20:51.149Z,276.67
2022-10-13T04:23:18.634Z,267.53
2022-10-13T04:25:45.712Z,238.70
2022-10-13T04:28:13.253Z,241.90
2022-10-13T04:30:40.415Z,339.43
2022-10-13T04:33:07.581Z,425.80
2022-10-13T04:35:34.680Z,161.20
2022-10-13T04:38:01.782Z,128.73
2022-10-13T04:40:28.874Z,152.80
2022-10-13T04:42:55.975Z,158.03
2022-10-13T04:45:23.078Z,120.23
2022-10-13T04:47:50.175Z,120.00
2022-10-13T04:50:17.348Z,103.93
2022-10-13T04:52:44.447Z,63.33
2022-10-13T04:55:11.865Z,53.67
2022-10-13T04:57:39.001Z,43.67
2022-10-13T05:00:07.271Z,43.37
2022-10-13T05:02:37.549Z,41.07
2022-10-13T05:05:04.982Z,44.87
2022-10-13T05:07:32.807Z,41.63
2022-10-13T05:09:59.870Z,41.03
2022-10-13T05:12:26.999Z,41.97
2022-10-13T05:14:54.203Z,41.43
2022-10-13T05:17:21.241Z,45.17
2022-10-13T05:19:49.830Z,44.27
2022-10-13T05:22:17.398Z,48.83
2022-10-13T05:24:44.708Z,52.50
2022-10-13T05:27:13.611Z,59.30
2022-10-13T05:29:41.091Z,63.20
2022-10-13T05:32:08.600Z,61.13
2022-10-13T05:34:35.725Z,62.70
2022-10-13T05:37:02.876Z,64.40
2022-10-13T05:39:29.985Z,58.70
2022-10-13T05:41:57.092Z,64.50
2022-10-13T05:44:24.673Z,65.93
2022-10-13T05:46:51.808Z,63.70
2022-10-13T05:49:18.865Z,70.40
2022-10-13T05:51:50.662Z,65.83
2022-10-13T05:54:20.292Z,64.67
2022-10-13T05:56:49.708Z,60.73
2022-10-13T05:59:22.251Z,58.90
2022-10-13T06:01:52.017Z,50.43
2022-10-13T06:04:22.599Z,53.10
2022-10-13T06:06:49.889Z,56.60
2022-10-13T06:09:17.180Z,52.73
2022-10-13T06:11:44.319Z,51.13
2022-10-13T06:14:11.376Z,55.33
2022-10-13T06:16:38.433Z,48.63
2022-10-13T06:19:06.212Z,54.97
2022-10-13T06:21:35.727Z,50.67
2022-10-13T06:24:03.051Z,52.83
2022-10-13T06:26:30.170Z,54.87
2022-10-13T06:28:59.731Z,53.80
2022-10-13T06:31:27.490Z,60.60
2022-10-13T06:33:54.724Z,54.17
2022-10-13T06:36:21.813Z,57.93
2022-10-13T06:38:48.891Z,53.60
2022-10-13T06:41:16.003Z,59.40
2022-10-13T06:43:43.162Z,60.53
2022-10-13T06:46:10.652Z,57.80
2022-10-13T06:48:38.001Z,53.30
2022-10-13T06:51:06.031Z,53.23
2022-10-13T06:53:33.580Z,60.63
2022-10-13T06:56:01.426Z,59.00
2022-10-13T06:58:28.571Z,59.70
2022-10-13T07:00:56.084Z,54.03
2022-10-13T07:03:25.004Z,61.60
2022-10-13T07:05:52.151Z,62.10
2022-10-13T07:08:19.271Z,59.37
2022-10-13T07:10:46.415Z,63.87
2022-10-13T07:13:13.550Z,65.23
2022-10-13T07:15:41.326Z,63.37
2022-10-13T07:18:08.404Z,69.97
2022-10-13T07:20:36.076Z,70.50
2022-10-13T07:23:03.357Z,67.90
2022-10-13T07:25:30.504Z,69.80
2022-10-13T07:27:59.240Z,71.80
2022-10-13T07:30:26.551Z,72.80
2022-10-13T07:32:53.721Z,87.13
2022-10-13T07:35:22.602Z,82.60
2022-10-13T07:37:53.069Z,74.97
2022-10-13T07:40:20.156Z,72.07
2022-10-13T07:42:47.272Z,64.90
2022-10-13T07:45:14.373Z,69.73
2022-10-13T07:47:41.487Z,64.70
2022-10-13T07:50:09.289Z,65.03
2022-10-13T07:52:37.119Z,50.73
2022-10-13T07:55:04.507Z,42.87
2022-10-13T07:57:31.602Z,40.03
2022-10-13T07:59:58.754Z,43.33
2022-10-13T08:02:26.350Z,47.77
2022-10-13T08:04:53.451Z,55.93
2022-10-13T08:07:21.026Z,57.63
2022-10-13T08:09:48.344Z,51.23
2022-10-13T08:12:15.414Z,55.57
2022-10-13T08:14:42.575Z,54.60
2022-10-13T08:17:09.736Z,49.00
2022-10-13T08:19:36.869Z,52.37
2022-10-13T08:22:06.616Z,54.00
2022-10-13T08:24:36.984Z,47.57
2022-10-13T08:27:04.203Z,44.47
2022-10-13T08:29:31.377Z,46.20
2022-10-13T08:31:58.533Z,44.23
2022-10-13T08:34:25.959Z,51.17
2022-10-13T08:36:54.623Z,44.17
2022-10-13T08:39:22.259Z,45.10
2022-10-13T08:41:49.854Z,46.90
2022-10-13T08:47:42.207Z,41.87
2022-10-13T08:50:16.763Z,43.17
2022-10-13T08:52:59.867Z,44.13
2022-10-13T08:55:35.453Z,42.23
2022-10-13T08:58:03.184Z,42.13
2022-10-13T09:00:30.627Z,42.83
2022-10-13T09:03:24.115Z,44.60
2022-10-13T09:05:56.966Z,37.40
2022-10-13T09:08:25.366Z,40.73
2022-10-13T09:10:53.170Z,39.53
2022-10-13T09:13:21.015Z,34.63
2022-10-13T09:15:50.431Z,36.97
2022-10-13T09:18:17.902Z,35.03
2022-10-13T09:20:45.030Z,31.03
2022-10-13T09:23:14.859Z,31.05
2022-10-13T09:25:46.007Z,32.20
2022-10-13T09:28:26.784Z,34.42
2022-10-13T09:31:02.682Z,28.75
2022-10-13T09:33:29.793Z,35.60
2022-10-13T09:35:56.882Z,31.02
2022-10-13T09:38:25.378Z,30.33
2022-10-13T09:40:59.276Z,29.55
2022-10-13T09:43:44.748Z,27.38
2022-10-13T09:46:13.840Z,30.70
2022-10-13T09:48:46.106Z,32.88
2022-10-13T09:51:33.450Z,27.90
2022-10-13T09:54:00.578Z,26.05
2022-10-13T09:56:36.950Z,28.75
2022-10-13T09:59:22.608Z,30.30
2022-10-13T10:01:50.863Z,30.95
2022-10-13T10:04:20.827Z,28.80
2022-10-13T10:06:47.990Z,31.13
2022-10-13T10:09:33.883Z,36.38
2022-10-13T10:12:02.045Z,25.42
2022-10-13T10:14:30.297Z,26.95
2022-10-13T10:17:04.518Z,31.85
2022-10-13T10:19:31.721Z,29.85
2022-10-13T10:22:04.229Z,31.33
2022-10-13T10:24:37.558Z,32.13
2022-10-13T10:27:07.756Z,36.42
2022-10-13T10:29:58.282Z,36.40
2022-10-13T10:32:25.317Z,30.85
2022-10-13T10:35:11.094Z,27.88
2022-10-13T10:37:53.265Z,32.60
2022-10-13T10:40:39.048Z,29.05
2022-10-13T10:43:18.373Z,28.98
2022-10-13T10:45:47.942Z,32.17
2022-10-13T10:48:21.224Z,36.50
2022-10-13T10:50:49.023Z,32.75
2022-10-13T10:53:22.301Z,34.22
2022-10-13T10:55:49.435Z,32.00
2022-10-13T10:58:39.826Z,33.58
2022-10-13T11:01:36.649Z,29.20
2022-10-13T11:04:16.163Z,26.85
2022-10-13T11:06:43.241Z,27.90
2022-10-13T11:09:11.670Z,30.67
2022-10-13T11:11:40.017Z,28.70
2022-10-13T11:14:07.065Z,30.33
2022-10-13T11:16:34.167Z,32.22
2022-10-13T11:19:07.275Z,25.20
2022-10-13T11:21:53.213Z,29.75
2022-10-13T11:24:49.620Z,28.08
2022-10-13T11:27:16.919Z,24.42
2022-10-13T11:29:47.209Z,26.70
2022-10-13T11:32:26.668Z,32.20
2022-10-13T11:35:18.413Z,29.50
2022-10-13T11:38:00.867Z,28.83
2022-10-13T11:40:42.621Z,30.50
2022-10-13T11:43:12.556Z,27.80
2022-10-13T11:45:39.795Z,28.55
2022-10-13T11:48:06.982Z,28.90
2022-10-13T11:50:37.202Z,29.45
2022-10-13T11:53:04.273Z,32.88
2022-10-13T11:55:31.331Z,30.40
2022-10-13T11:58:17.269Z,28.13
2022-10-13T12:00:51.702Z,25.88
2022-10-13T12:03:23.179Z,27.95
2022-10-13T12:05:52.072Z,26.38
2022-10-13T12:08:20.082Z,25.23
2022-10-13T12:10:47.610Z,19.77
2022-10-13T12:13:21.309Z,20.23
2022-10-13T12:15:48.393Z,20.40
2022-10-13T12:18:23.736Z,20.00
2022-10-13T12:20:55.132Z,17.92
2022-10-13T12:23:22.636Z,26.95
2022-10-13T12:25:56.510Z,21.67
2022-10-13T12:28:25.644Z,19.70
2022-10-13T12:30:57.040Z,24.13
2022-10-13T12:33:35.513Z,20.95
2022-10-13T12:36:12.751Z,21.42
2022-10-13T12:38:42.830Z,25.90
2022-10-13T12:41:10.588Z,21.45
2022-10-13T12:43:38.053Z,23.67
2022-10-13T12:46:07.287Z,17.50
2022-10-13T12:48:36.092Z,25.00
2022-10-13T12:51:20.617Z,22.27
2022-10-13T12:53:48.643Z,25.57
2022-10-13T12:56:21.923Z,29.07
2022-10-13T12:58:49.190Z,24.17
2022-10-13T13:01:16.324Z,26.37
2022-10-13T13:03:44.169Z,30.40
2022-10-13T13:06:11.222Z,27.70
2022-10-13T13:08:41.845Z,29.80
2022-10-13T13:11:21.406Z,24.87
2022-10-13T13:13:48.531Z,27.10
2022-10-13T13:16:19.793Z,30.10
2022-10-13T13:18:47.333Z,29.23
2022-10-13T13:21:16.020Z,25.90
2022-10-13T13:23:43.796Z,26.80
2022-10-13T13:26:13.665Z,31.37
2022-10-13T13:28:43.707Z,28.63
2022-10-13T13:31:12.613Z,27.97
2022-10-13T13:33:39.957Z,29.80
2022-10-13T13:36:17.770Z,27.03
2022-10-13T13:38:45.077Z,32.80
2022-10-13T13:41:12.802Z,30.83
2022-10-13T13:43:40.396Z,29.20
2022-10-13T13:46:08.443Z,30.70
2022-10-13T13:48:35.499Z,31.83
2022-10-13T13:51:02.619Z,34.37
2022-10-13T13:53:29.714Z,26.80
2022-10-13T13:55:56.994Z,31.47
2022-10-13T13:58:24.101Z,29.20
2022-10-13T14:00:51.256Z,29.83
2022-10-13T14:03:19.490Z,31.67
2022-10-13T14:05:46.732Z,25.57
2022-10-13T14:08:13.848Z,28.33
2022-10-13T14:10:41.294Z,24.97
2022-10-13T14:13:08.391Z,28.17
2022-10-13T14:15:35.555Z,24.70
2022-10-13T14:18:02.660Z,25.23
2022-10-13T14:20:29.815Z,24.97
2022-10-13T14:22:56.896Z,27.20
2022-10-13T14:25:24.010Z,26.70
2022-10-13T14:27:51.143Z,21.50
2022-10-13T14:30:18.308Z,29.47
2022-10-13T14:32:45.387Z,28.50
2022-10-13T14:35:12.441Z,25.00
2022-10-13T14:37:39.953Z,24.43
2022-10-13T14:40:07.376Z,29.17
2022-10-13T14:42:34.599Z,23.13
2022-10-13T14:45:02.946Z,19.77
2022-10-13T14:47:30.061Z,27.23
2022-10-13T14:49:57.173Z,30.50
2022-10-13T14:52:24.282Z,27.57
2022-10-13T14:54:51.387Z,24.67
2022-10-13T14:57:19.578Z,25.80
2022-10-13T14:59:47.567Z,27.07
2022-10-13T15:02:14.646Z,29.13
2022-10-13T15:04:41.717Z,30.97
2022-10-13T15:07:09.027Z,29.33
2022-10-13T15:09:52.189Z,31.00
2022-10-13T15:12:20.645Z,28.57
2022-10-13T15:14:48.041Z,35.37
2022-10-13T15:17:15.161Z,31.80
2022-10-13T15:19:42.202Z,25.97
2022-10-13T15:22:09.309Z,36.73
2022-10-13T15:24:36.394Z,41.93
2022-10-13T15:27:03.476Z,36.20
2022-10-13T15:29:30.559Z,37.63
2022-10-13T15:32:11.410Z,28.93
2022-10-13T15:34:41.587Z,29.83
2022-10-13T15:37:08.840Z,31.87
2022-10-13T15:39:35.914Z,34.83
2022-10-13T15:42:03.165Z,37.33
2022-10-13T15:44:51.140Z,37.40
2022-10-13T15:47:18.390Z,39.43
2022-10-13T15:49:45.464Z,39.67
2022-10-13T15:52:12.690Z,38.03
2022-10-13T15:54:40.884Z,34.23
2022-10-13T15:57:08.500Z,33.73
2022-10-13T15:59:35.636Z,30.17
2022-10-13T16:02:02.725Z,36.20
2022-10-13T16:04:33.487Z,31.77
2022-10-13T16:07:03.547Z,34.57
2022-10-13T16:09:31.302Z,34.97
2022-10-13T16:11:58.360Z,33.77
2022-10-13T16:14:25.452Z,28.50
2022-10-13T16:16:52.525Z,27.80
2022-10-13T16:19:19.630Z,32.20
2022-10-13T16:21:46.935Z,29.50
2022-10-13T16:24:14.029Z,27.60
2022-10-13T16:26:41.192Z,31.60
2022-10-13T16:29:08.295Z,28.30
2022-10-13T16:31:35.394Z,29.83
2022-10-13T16:34:02.484Z,25.87
2022-10-13T16:36:29.573Z,26.70
2022-10-13T16:38:56.659Z,28.60
2022-10-13T16:41:24.033Z,28.90
2022-10-13T16:43:51.129Z,26.40
2022-10-13T16:46:19.826Z,26.80
2022-10-13T16:48:47.485Z,27.30
2022-10-13T16:51:22.132Z,25.80
2022-10-13T16:53:50.139Z,28.23
2022-10-13T16:56:22.018Z,28.20
2022-10-13T16:58:50.124Z,25.13
2022-10-13T17:01:17.420Z,31.17
2022-10-13T17:03:45.252Z,30.87
2022-10-13T17:06:13.922Z,29.33
2022-10-13T17:08:42.198Z,31.47
2022-10-13T17:11:09.631Z,32.07
2022-10-13T17:13:37.199Z,29.03
2022-10-13T17:16:04.474Z,29.97
2022-10-13T17:18:31.566Z,30.83
2022-10-13T17:21:03.226Z,34.23
2022-10-13T17:23:30.770Z,30.30
2022-10-13T17:26:01.611Z,33.63
2022-10-13T17:28:28.820Z,35.00
2022-10-13T17:30:59.710Z,34.10
2022-10-13T17:33:27.844Z,31.23
2022-10-13T17:35:59.450Z,42.00
2022-10-13T17:38:26.755Z,29.47
2022-10-13T17:40:58.790Z,32.00
2022-10-13T17:43:26.700Z,27.93
2022-10-13T17:45:53.856Z,36.27
2022-10-13T17:48:23.161Z,32.33
2022-10-13T17:50:50.397Z,31.03
2022-10-13T17:53:17.521Z,34.33
2022-10-13T17:55:44.619Z,32.67
2022-10-13T17:58:11.674Z,33.30
2022-10-13T18:01:00.655Z,39.27
2022-10-13T18:03:25.869Z,38.20
2022-10-13T18:05:53.109Z,31.53
2022-10-13T18:08:21.174Z,32.67
2022-10-13T18:11:15.715Z,32.63
2022-10-13T18:13:35.578Z,34.30
2022-10-13T18:16:22.963Z,40.80
2022-10-13T18:18:50.519Z,38.87
2022-10-13T18:21:26.181Z,37.63
2022-10-13T18:24:00.345Z,35.87
2022-10-13T18:26:28.012Z,38.23
2022-10-13T18:28:55.414Z,40.60
2022-10-13T18:31:23.762Z,40.87
2022-10-13T18:33:51.196Z,35.97
2022-10-13T18:36:23.529Z,33.07
2022-10-13T18:38:54.149Z,41.63
2022-10-13T18:41:22.443Z,32.97
2022-10-13T18:43:49.658Z,36.50
2022-10-13T18:46:16.771Z,37.10
2022-10-13T18:48:43.887Z,41.63
2022-10-13T18:51:12.628Z,37.40
2022-10-13T18:53:41.578Z,34.20
2022-10-13T18:56:09.892Z,36.33
2022-10-13T18:58:36.957Z,38.73
2022-10-13T19:01:05.518Z,38.10
2022-10-13T19:03:33.504Z,37.03
2022-10-13T19:06:00.847Z,44.13
2022-10-13T19:08:29.329Z,44.53
2022-10-13T19:10:56.895Z,56.03
2022-10-13T19:13:25.578Z,36.93
2022-10-13T19:16:02.258Z,33.70
2022-10-13T19:18:29.509Z,41.40
2022-10-13T19:20:56.600Z,42.77
2022-10-13T19:23:24.272Z,33.13
2022-10-13T19:25:51.369Z,29.87
2022-10-13T19:28:18.618Z,28.77
2022-10-13T19:30:46.019Z,33.93
2022-10-13T19:33:14.337Z,41.33
2022-10-13T19:35:42.373Z,43.10
2022-10-13T19:38:10.071Z,41.73
2022-10-13T19:40:42.153Z,43.60
2022-10-13T19:43:10.040Z,37.23
2022-10-13T19:45:37.339Z,37.70
2022-10-13T19:48:04.471Z,39.23
2022-10-13T19:50:33.599Z,36.83
2022-10-13T19:53:00.677Z,35.53
2022-10-13T19:55:28.171Z,37.67
2022-10-13T19:57:55.250Z,38.83
2022-10-13T20:00:22.289Z,43.23
2022-10-13T20:02:49.405Z,41.37
2022-10-13T20:05:16.516Z,47.27
2022-10-13T20:07:43.604Z,47.23
2022-10-13T20:10:10.687Z,42.87
2022-10-13T20:12:37.760Z,45.80
2022-10-13T20:15:04.940Z,49.43
2022-10-13T20:17:32.144Z,47.27
2022-10-13T20:19:59.216Z,51.63
2022-10-13T20:22:26.330Z,49.23
2022-10-13T20:24:53.512Z,55.73
2022-10-13T20:27:20.910Z,60.77
2022-10-13T20:29:48.266Z,59.27
2022-10-13T20:32:15.464Z,68.97
2022-10-13T20:34:42.511Z,62.53
2022-10-13T20:37:09.605Z,66.87
2022-10-13T20:39:36.867Z,71.67
2022-10-13T20:42:04.047Z,75.10
2022-10-13T20:44:31.148Z,68.93
2022-10-13T20:46:58.282Z,78.67
2022-10-13T20:49:25.375Z,73.63
2022-10-13T20:51:52.625Z,79.07
2022-10-13T20:54:19.671Z,76.53
2022-10-13T20:56:47.262Z,79.23
2022-10-13T20:59:14.801Z,88.23
2022-10-13T21:01:42.340Z,75.10
2022-10-13T21:04:09.556Z,78.03
2022-10-13T21:06:37.036Z,80.07
2022-10-13T21:09:05.465Z,79.90
2022-10-13T21:11:32.524Z,84.73
2022-10-13T21:13:59.732Z,83.83
2022-10-13T21:16:28.388Z,84.97
2022-10-13T21:18:56.440Z,88.17
2022-10-13T21:21:24.816Z,77.77
2022-10-13T21:23:52.501Z,83.47
2022-10-13T21:26:21.851Z,88.37
2022-10-13T21:28:50.028Z,87.63
2022-10-13T21:31:17.432Z,90.80
2022-10-13T21:33:44.859Z,86.33
2022-10-13T21:36:13.613Z,91.00
2022-10-13T21:38:41.178Z,96.53
2022-10-13T21:41:08.815Z,86.33
2022-10-13T21:43:36.274Z,89.33
2022-10-13T21:46:14.534Z,88.87
2022-10-13T21:48:41.668Z,92.90
2022-10-13T21:51:25.459Z,99.33
2022-10-13T21:53:53.649Z,91.13
2022-10-13T21:56:21.290Z,88.53
2022-10-13T21:58:49.052Z,83.60
2022-10-13T22:01:17.081Z,87.83
2022-10-13T22:03:44.348Z,85.97
2022-10-13T22:06:17.649Z,88.43
2022-10-13T22:08:46.238Z,86.27
2022-10-13T22:11:13.806Z,92.80
2022-10-13T22:13:40.890Z,87.97
2022-10-13T22:16:27.142Z,90.17
2022-10-13T22:18:55.246Z,95.50
2022-10-13T22:21:26.039Z,85.73
2022-10-13T22:23:56.257Z,88.80
2022-10-13T22:26:23.351Z,95.40
2022-10-13T22:28:51.660Z,106.37
2022-10-13T22:31:19.393Z,97.47
2022-10-13T22:33:46.501Z,93.47
2022-10-13T22:36:17.981Z,89.63
2022-10-13T22:38:45.944Z,88.20
2022-10-13T22:41:14.595Z,78.37
2022-10-13T22:43:44.119Z,86.47
2022-10-13T22:46:12.090Z,74.67
2022-10-13T22:48:40.985Z,76.40
2022-10-13T22:51:09.288Z,65.20
2022-10-13T22:53:36.437Z,64.83
2022-10-13T22:56:10.452Z,58.50
2022-10-13T22:58:37.738Z,47.83
2022-10-13T23:01:05.533Z,47.07
2022-10-13T23:03:32.764Z,51.90
2022-10-13T23:05:59.905Z,46.30
2022-10-13T23:08:26.982Z,45.20
2022-10-13T23:10:54.134Z,45.83
2022-10-13T23:13:21.253Z,45.77
2022-10-13T23:15:48.353Z,42.93
2022-10-13T23:18:15.738Z,42.63
2022-10-13T23:20:43.258Z,47.43
2022-10-13T23:23:10.594Z,44.53
2022-10-13T23:25:38.173Z,47.60
2022-10-13T23:28:05.560Z,45.60
2022-10-13T23:30:32.751Z,50.00
2022-10-13T23:32:59.785Z,54.47
2022-10-13T23:35:26.885Z,51.27
2022-10-13T23:37:53.940Z,48.37
2022-10-13T23:40:21.064Z,43.03
2022-10-13T23:42:48.152Z,46.23
2022-10-13T23:45:15.209Z,46.60
2022-10-13T23:47:42.246Z,46.83
2022-10-13T23:50:09.524Z,45.90
2022-10-13T23:52:36.622Z,46.70
2022-10-13T23:55:03.997Z,41.67
2022-10-13T23:57:31.295Z,43.57
2022-10-13T23:59:58.407Z,36.50
